Kilic 1 — TCUE8 — position and weather

sailwx.info

Track history (hours):
 
Tides and Currents Weather Stations Pressure Air Temp Water Temp Dewpoint Dewpoint Depression Visibility Wind Speed Wind Dir Waves Ship Positions

Kilic 1

Last reported at 2017-Oct-14 18:00 UTC. Time now 2017-Oct-16 22:37 UTC.
Position N 36°02' E 031°29'.

Length 79 m; draft 4.5 m.

Type: Cargo ship. MMSI: 271043084.

Date/timePositionNaut miles runAvg speedWind from/ knotsBaromVisibWave heightAir tempDewpointWater temp
2017-Oct-14 18:00N 36°02' E 031°29'4 7.6
2017-Oct-14 17:27N 36°02' E 031°24'5 7.6
2017-Oct-14 16:49N 36°02' E 031°18'19 7.8
2017-Oct-14 14:19N 36°03' E 030°54'3 7.8
2017-Oct-14 13:58N 36°03' E 030°51'4 7.8
2017-Oct-14 13:28N 36°04' E 030°46'17 7.8
2017-Oct-14 11:18N 36°04' E 030°25'  
2017-Oct-05 21:26N 36°08' E 014°39'3 7.5
2017-Oct-05 21:00N 36°08' E 014°35'4 7.4
2017-Oct-05 20:30N 36°08' E 014°31'3 7.0
2017-Oct-05 20:00N 36°08' E 014°26'4 7.1
2017-Oct-05 19:30N 36°08' E 014°22'3 7.1
2017-Oct-05 19:00N 36°08' E 014°18'4 7.3
2017-Oct-05 18:30N 36°08' E 014°13'4 7.4
2017-Oct-05 18:00N 36°08' E 014°09'4 7.5
2017-Oct-05 17:30N 36°08' E 014°04'4 7.4
2017-Oct-05 17:00N 36°07' E 013°59'  
Track history (hours):
 
Tides and Currents Weather Stations Pressure Air Temp Water Temp Dewpoint Dewpoint Depression Visibility Wind Speed Wind Dir Waves Ship Positions

Kilic 1

Last reported at 2017-Oct-14 18:00 UTC. Time now 2017-Oct-16 22:37 UTC.
Position N 36°02' E 031°29'.

Length 79 m; draft 4.5 m.

Type: Cargo ship. MMSI: 271043084.

Date/timePositionNaut miles runAvg speedWind from/ knotsBaromVisibWave heightAir tempDewpointWater temp
2017-Oct-14 18:00N 36°02' E 031°29'4 7.6
2017-Oct-14 17:27N 36°02' E 031°24'5 7.6
2017-Oct-14 16:49N 36°02' E 031°18'19 7.8
2017-Oct-14 14:19N 36°03' E 030°54'3 7.8
2017-Oct-14 13:58N 36°03' E 030°51'4 7.8
2017-Oct-14 13:28N 36°04' E 030°46'17 7.8
2017-Oct-14 11:18N 36°04' E 030°25'  
2017-Oct-05 21:26N 36°08' E 014°39'3 7.5
2017-Oct-05 21:00N 36°08' E 014°35'4 7.4
2017-Oct-05 20:30N 36°08' E 014°31'3 7.0
2017-Oct-05 20:00N 36°08' E 014°26'4 7.1
2017-Oct-05 19:30N 36°08' E 014°22'3 7.1
2017-Oct-05 19:00N 36°08' E 014°18'4 7.3
2017-Oct-05 18:30N 36°08' E 014°13'4 7.4
2017-Oct-05 18:00N 36°08' E 014°09'4 7.5
2017-Oct-05 17:30N 36°08' E 014°04'4 7.4
2017-Oct-05 17:00N 36°07' E 013°59'  

Dump ship's entire track history